KPRC/PRC METAR and TAF weather

Enter ICAO airport designator
Station Type Date Time Source
KPRC METAR 2020/11/25 21:53 UTC NOAA

KPRC 252153Z 13010G18KT 10SM CLR 13/M08 A3005 RMK AO2 SLP153 T01331083


Station Type Date Time Source
KPRC Decoded METAR 2020/11/25 21:53 UTC NOAA

PRESCOTT LOVE FIELD, AZ, United States (KPRC) 34-39N 112-25W 1524M
Nov 25, 2020 - 04:53 PM EST / 2020.11.25 2153 UTC
Wind: from the SE (130 degrees) at 12 MPH (10 KT) gusting to 21 MPH (18 KT):0
Visibility: 10 mile(s):0
Sky conditions: clear
Temperature: 55.9 F (13.3 C)
Dew Point: 17.1 F (-8.3 C)
Relative Humidity: 21%
Pressure (altimeter): 30.05 in. Hg (1017 hPa)
ob: KPRC 252153Z 13010G18KT 10SM CLR 13/M08 A3005 RMK AO2 SLP153 T01331083
cycle: 22

Station Type Date Time Source
KPRC TAF 2020/11/25 18:22 UTC NOAA

TAF KPRC 251720Z 2518/2618 VRB05KT P6SM SKC

Example: see airport list